Time;durP1;ratioP1;P1;durP2;ratioP2;P2;SDS_P1;SDS_P2;PMS_P1;PMS_P2;Temp;Humidity;BMP_temperature;BMP_pressure;BME280_temperature;BME280_humidity;BME280_pressure;Samples;Min_cycle;Max_cycle;Signal;HPM_P1;HPM_P2
2021/01/26 00:00:52;;;;;;;;;;;6.00;76.50;;;;;;5034427;27;117586;-87
2021/01/26 00:03:18;;;;;;;;;;;6.00;76.50;;;;;;5032784;27;120102;-87
2021/01/26 00:05:45;;;;;;;;;;;6.00;76.50;;;;;;5032253;27;120613;-87
2021/01/26 00:08:12;;;;;;;;;;;6.00;76.50;;;;;;5068928;27;117357;-87
2021/01/26 00:10:38;;;;;;;;;;;6.00;76.50;;;;;;5034070;27;117257;-87
2021/01/26 00:13:05;;;;;;;;;;;6.00;76.60;;;;;;5032957;27;121135;-87
2021/01/26 00:15:30;;;;;;;;;;;6.00;76.50;;;;;;5032832;27;119419;-87
2021/01/26 00:17:56;;;;;;;;;;;6.00;76.50;;;;;;5051029;27;117728;-87
2021/01/26 00:20:21;;;;;;;;;;;6.00;76.50;;;;;;5051106;27;116859;-87
2021/01/26 00:22:47;;;;;;;;;;;6.00;76.50;;;;;;5031883;27;121766;-87
2021/01/26 00:25:14;;;;;;;;;;;6.00;76.50;;;;;;5032821;27;119561;-87
2021/01/26 00:27:40;;;;;;;;;;;6.00;76.50;;;;;;5033467;27;117474;-87
2021/01/26 00:30:09;;;;;;;;;;;6.00;76.50;;;;;;5033116;27;117683;-86
2021/01/26 00:32:35;;;;;;;;;;;6.00;76.50;;;;;;5032898;27;120596;-87
2021/01/26 00:35:00;;;;;;;;;;;6.00;76.50;;;;;;5032544;27;119574;-87
2021/01/26 00:37:26;;;;;;;;;;;6.00;76.50;;;;;;5033478;27;117453;-87
2021/01/26 00:39:51;;;;;;;;;;;6.00;76.40;;;;;;5050499;27;117730;-87
2021/01/26 00:42:17;;;;;;;;;;;6.00;76.50;;;;;;5031699;27;120298;-87
2021/01/26 00:44:42;;;;;;;;;;;6.00;76.50;;;;;;5031851;27;120818;-87
2021/01/26 00:47:09;;;;;;;;;;;6.00;76.50;;;;;;5033056;27;117548;-87
2021/01/26 00:49:35;;;;;;;;;;;6.00;76.40;;;;;;5032953;27;117403;-87
2021/01/26 00:52:01;;;;;;;;;;;6.00;76.50;;;;;;5031973;27;120377;-87
2021/01/26 00:54:26;;;;;;;;;;;6.00;76.50;;;;;;5031285;27;119772;-87
2021/01/26 00:56:52;;;;;;;;;;;6.00;76.50;;;;;;5032770;27;117551;-87
2021/01/26 00:59:17;;;;;;;;;;;6.00;76.50;;;;;;5032393;27;117775;-87
2021/01/26 01:01:43;;;;;;;;;;;6.00;76.50;;;;;;5031713;27;121423;-87
2021/01/26 01:04:08;;;;;;;;;;;6.00;76.50;;;;;;5031434;27;119637;-87
2021/01/26 01:06:34;;;;;;;;;;;6.00;76.50;;;;;;5032567;27;117539;-87
2021/01/26 01:09:00;;;;;;;;;;;6.00;76.50;;;;;;5032834;27;118321;-87
2021/01/26 01:11:28;;;;;;;;;;;6.00;76.50;;;;;;5031039;27;119383;-87
2021/01/26 01:13:54;;;;;;;;;;;6.00;76.50;;;;;;5048808;27;117915;-87
2021/01/26 01:16:20;;;;;;;;;;;6.00;76.40;;;;;;5031846;27;117529;-89
2021/01/26 01:18:48;;;;;;;;;;;5.90;76.50;;;;;;5066414;27;117291;-89
2021/01/26 01:21:14;;;;;;;;;;;6.00;76.50;;;;;;5047590;27;118627;-89
2021/01/26 01:23:40;;;;;;;;;;;6.00;76.60;;;;;;5030253;27;119033;-89
2021/01/26 01:26:05;;;;;;;;;;;5.90;76.60;;;;;;5031708;27;117898;-89
2021/01/26 01:28:31;;;;;;;;;;;5.90;76.50;;;;;;5031757;27;117578;-89
2021/01/26 01:30:57;;;;;;;;;;;5.90;76.50;;;;;;5030551;27;119827;-89
2021/01/26 01:33:23;;;;;;;;;;;5.90;76.60;;;;;;5030677;27;119445;-89
2021/01/26 01:35:49;;;;;;;;;;;5.90;76.50;;;;;;5031711;27;117422;-89
2021/01/26 01:38:14;;;;;;;;;;;5.90;76.50;;;;;;5048935;27;118086;-89
2021/01/26 01:40:40;;;;;;;;;;;5.90;76.50;;;;;;5030637;27;119709;-89
2021/01/26 01:43:05;;;;;;;;;;;5.90;76.60;;;;;;5029689;27;120406;-89
2021/01/26 01:45:31;;;;;;;;;;;5.90;76.50;;;;;;5031298;27;117273;-89
2021/01/26 01:48:04;;;;;;;;;;;5.90;76.50;;;;;;5031442;27;117862;-89
2021/01/26 01:50:34;;;;;;;;;;;5.90;76.50;;;;;;5030309;27;121603;-89
2021/01/26 01:53:10;;;;;;;;;;;5.90;76.50;;;;;;5030328;27;119203;-89
2021/01/26 01:55:36;;;;;;;;;;;5.90;76.50;;;;;;5031139;27;117651;-89
2021/01/26 01:58:03;;;;;;;;;;;5.90;76.70;;;;;;5031625;27;117814;-89
2021/01/26 02:00:28;;;;;;;;;;;5.90;76.80;;;;;;5029937;27;120145;-89
2021/01/26 02:02:59;;;;;;;;;;;5.80;76.70;;;;;;5030791;27;117237;-89
2021/01/26 02:05:25;;;;;;;;;;;5.80;76.70;;;;;;5031269;27;117752;-89
2021/01/26 02:07:52;;;;;;;;;;;5.80;76.70;;;;;;5030743;27;117886;-89
2021/01/26 02:10:17;;;;;;;;;;;5.80;76.70;;;;;;5029867;27;120701;-89
2021/01/26 02:12:43;;;;;;;;;;;5.80;76.70;;;;;;5030256;27;119273;-89
2021/01/26 02:15:09;;;;;;;;;;;5.80;76.70;;;;;;5030977;27;117417;-89
2021/01/26 02:17:37;;;;;;;;;;;5.80;76.70;;;;;;5031377;27;117923;-89
2021/01/26 02:20:12;;;;;;;;;;;5.80;76.70;;;;;;5046569;27;120061;-89
2021/01/26 02:22:41;;;;;;;;;;;5.80;76.70;;;;;;5030022;27;119281;-89
2021/01/26 02:25:42;;;;;;;;;;;5.80;76.70;;;;;;5047918;27;117465;-89
2021/01/26 02:28:26;;;;;;;;;;;5.80;76.70;;;;;;4947025;28;117764;-89
2021/01/26 02:31:04;;;;;;;;;;;5.80;76.70;;;;;;5037806;27;121419;-89
2021/01/26 02:33:36;;;;;;;;;;;5.80;76.60;;;;;;5046190;27;119562;-89
2021/01/26 02:36:04;;;;;;;;;;;5.80;76.50;;;;;;5047411;27;117595;-89
2021/01/26 02:38:49;;;;;;;;;;;5.80;76.50;;;;;;5047852;27;117447;-89
2021/01/26 02:41:21;;;;;;;;;;;5.80;76.70;;;;;;5046787;27;119847;-89
2021/01/26 02:43:56;;;;;;;;;;;5.80;76.50;;;;;;5029934;27;119253;-89
2021/01/26 02:46:36;;;;;;;;;;;5.80;76.40;;;;;;5032449;27;117309;-89
2021/01/26 02:49:04;;;;;;;;;;;5.80;76.40;;;;;;5034359;27;117466;-89
2021/01/26 02:51:33;;;;;;;;;;;5.80;76.40;;;;;;5033343;27;121294;-89
2021/01/26 02:54:06;;;;;;;;;;;5.80;76.50;;;;;;5033235;27;121145;-89
2021/01/26 02:56:41;;;;;;;;;;;5.80;76.50;;;;;;5033996;27;117599;-89
2021/01/26 02:59:23;;;;;;;;;;;5.80;76.60;;;;;;5050003;27;118025;-89
2021/01/26 03:01:50;;;;;;;;;;;5.80;76.50;;;;;;5032765;27;120664;-89
2021/01/26 03:04:22;;;;;;;;;;;5.80;76.60;;;;;;5032927;27;120535;-89
2021/01/26 03:06:48;;;;;;;;;;;5.80;76.60;;;;;;5033881;27;116663;-89
2021/01/26 03:09:19;;;;;;;;;;;5.80;76.60;;;;;;5033691;27;117960;-89
2021/01/26 03:12:08;;;;;;;;;;;5.80;76.60;;;;;;5032795;27;120104;-89
2021/01/26 03:14:40;;;;;;;;;;;5.80;76.60;;;;;;5035963;27;119390;-89
2021/01/26 03:17:14;;;;;;;;;;;5.80;76.60;;;;;;5033794;27;117938;-89
2021/01/26 03:19:40;;;;;;;;;;;5.70;76.50;;;;;;5034080;27;117369;-89
2021/01/26 03:22:05;;;;;;;;;;;5.70;76.50;;;;;;5032086;27;119721;-89
2021/01/26 03:24:35;;;;;;;;;;;5.80;76.70;;;;;;5031811;27;119224;-89
2021/01/26 03:27:02;;;;;;;;;;;5.70;77.20;;;;;;5033271;27;117533;-89
2021/01/26 03:29:29;;;;;;;;;;;5.80;76.70;;;;;;5033457;27;117873;-89
2021/01/26 03:31:56;;;;;;;;;;;5.80;76.70;;;;;;5032776;27;121185;-89
2021/01/26 03:34:21;;;;;;;;;;;5.70;76.60;;;;;;5032411;27;118899;-89
2021/01/26 03:36:47;;;;;;;;;;;5.70;76.70;;;;;;5033520;27;117539;-89
2021/01/26 03:39:12;;;;;;;;;;;5.80;77.30;;;;;;5033357;27;117946;-90
2021/01/26 03:41:38;;;;;;;;;;;5.80;76.70;;;;;;5032591;27;120894;-89
2021/01/26 03:44:04;;;;;;;;;;;5.70;76.70;;;;;;5032528;27;120372;-89
2021/01/26 03:46:35;;;;;;;;;;;5.70;76.70;;;;;;5033717;27;117540;-90
2021/01/26 03:49:03;;;;;;;;;;;5.70;76.70;;;;;;5033321;27;117081;-90
2021/01/26 03:51:35;;;;;;;;;;;5.70;76.70;;;;;;5049490;27;119763;-91
2021/01/26 03:54:05;;;;;;;;;;;5.70;76.70;;;;;;5032312;27;119141;-90
2021/01/26 03:56:49;;;;;;;;;;;5.70;76.80;;;;;;5032894;27;117555;-91
2021/01/26 03:59:34;;;;;;;;;;;5.70;76.70;;;;;;5068202;27;117443;-90
2021/01/26 04:02:09;;;;;;;;;;;5.80;76.80;;;;;;5049175;27;120203;-91
2021/01/26 04:04:44;;;;;;;;;;;5.80;76.80;;;;;;5032280;27;119260;-91
2021/01/26 04:07:14;;;;;;;;;;;5.70;76.80;;;;;;5033374;27;117487;-91
2021/01/26 04:09:42;;;;;;;;;;;5.70;76.70;;;;;;5033309;27;117395;-91
2021/01/26 04:12:09;;;;;;;;;;;5.70;76.80;;;;;;5049161;27;118572;-91
2021/01/26 04:14:35;;;;;;;;;;;5.70;76.70;;;;;;5031686;27;120353;-91
2021/01/26 04:17:07;;;;;;;;;;;5.70;76.80;;;;;;5032503;27;117500;-91
2021/01/26 04:19:33;;;;;;;;;;;5.70;76.70;;;;;;5032784;27;117658;-91
2021/01/26 04:21:59;;;;;;;;;;;5.70;76.70;;;;;;5031819;27;122971;-91
2021/01/26 04:24:29;;;;;;;;;;;5.70;76.80;;;;;;5031897;27;120017;-91
2021/01/26 04:26:55;;;;;;;;;;;5.70;76.80;;;;;;5049793;27;117313;-91
2021/01/26 04:29:20;;;;;;;;;;;5.70;76.80;;;;;;5050178;27;117866;-91
2021/01/26 04:31:46;;;;;;;;;;;5.70;76.80;;;;;;5031900;27;119698;-91
2021/01/26 04:34:11;;;;;;;;;;;5.70;76.80;;;;;;5048990;27;118078;-91
2021/01/26 04:36:37;;;;;;;;;;;5.70;76.70;;;;;;5032517;27;117378;-91
2021/01/26 04:39:02;;;;;;;;;;;5.70;76.80;;;;;;5031999;27;117489;-91
2021/01/26 04:41:46;;;;;;;;;;;5.70;76.60;;;;;;5048954;27;117520;-91
2021/01/26 04:44:12;;;;;;;;;;;5.70;76.80;;;;;;5031767;27;119921;-90
2021/01/26 04:46:44;;;;;;;;;;;5.70;76.60;;;;;;5049219;27;117367;-91
2021/01/26 04:49:25;;;;;;;;;;;5.70;76.70;;;;;;5032759;27;117104;-90
2021/01/26 04:51:55;;;;;;;;;;;5.60;76.70;;;;;;5048459;27;121794;-90
2021/01/26 04:54:42;;;;;;;;;;;5.70;76.70;;;;;;5031555;27;120648;-91
2021/01/26 04:57:17;;;;;;;;;;;5.60;76.70;;;;;;5049755;27;117454;-91
2021/01/26 04:59:46;;;;;;;;;;;5.60;76.70;;;;;;5049120;27;117583;-91
2021/01/26 05:02:23;;;;;;;;;;;5.60;76.60;;;;;;5066849;27;117570;-91
2021/01/26 05:04:53;;;;;;;;;;;5.60;76.60;;;;;;5047396;27;120361;-91
2021/01/26 05:07:19;;;;;;;;;;;5.60;76.60;;;;;;5031780;27;117494;-90
2021/01/26 05:10:04;;;;;;;;;;;5.60;76.60;;;;;;5031690;27;117916;-90
2021/01/26 05:12:33;;;;;;;;;;;5.60;76.60;;;;;;5047196;27;121296;-90
2021/01/26 05:14:59;;;;;;;;;;;5.60;76.50;;;;;;5048271;27;117736;-90
2021/01/26 05:17:29;;;;;;;;;;;5.60;76.50;;;;;;5032061;27;117373;-90
2021/01/26 05:20:03;;;;;;;;;;;5.60;76.40;;;;;;5032325;27;117912;-91
2021/01/26 05:22:40;;;;;;;;;;;5.60;76.50;;;;;;5030991;27;119958;-91
2021/01/26 05:25:06;;;;;;;;;;;5.60;76.50;;;;;;5031011;27;120785;-90
2021/01/26 05:27:32;;;;;;;;;;;5.60;76.40;;;;;;5031707;27;117274;-91
2021/01/26 05:29:58;;;;;;;;;;;5.60;76.40;;;;;;5048414;27;117626;-90
2021/01/26 05:32:23;;;;;;;;;;;5.60;76.40;;;;;;5030824;27;120418;-91
2021/01/26 05:34:49;;;;;;;;;;;5.60;76.50;;;;;;5030553;27;120461;-91
2021/01/26 05:37:15;;;;;;;;;;;5.60;76.50;;;;;;5031519;27;117512;-90
2021/01/26 05:39:56;;;;;;;;;;;5.60;76.50;;;;;;5031821;27;117899;-91
2021/01/26 05:42:21;;;;;;;;;;;5.60;76.40;;;;;;5047589;27;120223;-91
2021/01/26 05:44:49;;;;;;;;;;;5.60;76.40;;;;;;5030631;27;120184;-91
2021/01/26 05:47:19;;;;;;;;;;;5.60;77.10;;;;;;5048771;27;117361;-91
2021/01/26 05:49:44;;;;;;;;;;;5.60;76.40;;;;;;5031615;27;117931;-90
2021/01/26 05:52:10;;;;;;;;;;;5.60;76.40;;;;;;5047701;27;117540;-91
2021/01/26 05:54:37;;;;;;;;;;;5.60;76.30;;;;;;5030101;27;120957;-91
2021/01/26 05:57:02;;;;;;;;;;;5.50;76.30;;;;;;5031162;27;117793;-91
2021/01/26 05:59:29;;;;;;;;;;;5.50;76.30;;;;;;5047769;27;117856;-91
2021/01/26 06:01:55;;;;;;;;;;;5.50;76.30;;;;;;5030330;27;120967;-90
2021/01/26 06:04:25;;;;;;;;;;;5.60;76.40;;;;;;5030177;27;120921;-91
2021/01/26 06:06:51;;;;;;;;;;;5.60;76.50;;;;;;5048145;27;117396;-90
2021/01/26 06:09:26;;;;;;;;;;;5.60;76.20;;;;;;5048301;27;117264;-90
2021/01/26 06:11:54;;;;;;;;;;;5.50;76.30;;;;;;5030503;27;120192;-90
2021/01/26 06:14:20;;;;;;;;;;;5.60;76.40;;;;;;5030107;27;119433;-91
2021/01/26 06:16:45;;;;;;;;;;;5.50;76.30;;;;;;5031160;27;116846;-90
2021/01/26 06:19:13;;;;;;;;;;;5.60;76.30;;;;;;5030610;27;117458;-90
2021/01/26 06:21:49;;;;;;;;;;;5.60;76.30;;;;;;5029157;27;120329;-90
2021/01/26 06:24:15;;;;;;;;;;;5.50;76.20;;;;;;5030000;27;119399;-90
2021/01/26 06:26:40;;;;;;;;;;;5.50;76.30;;;;;;5030788;27;117512;-91
2021/01/26 06:29:06;;;;;;;;;;;5.50;76.20;;;;;;5030872;27;117434;-90
2021/01/26 06:31:47;;;;;;;;;;;5.50;76.20;;;;;;5046817;27;120138;-90
2021/01/26 06:34:16;;;;;;;;;;;5.50;76.30;;;;;;5047066;27;119399;-91
2021/01/26 06:36:42;;;;;;;;;;;5.50;76.20;;;;;;5030893;27;117308;-91
2021/01/26 06:39:17;;;;;;;;;;;5.50;76.20;;;;;;5047626;27;117825;-90
2021/01/26 06:41:56;;;;;;;;;;;5.50;76.30;;;;;;5029757;27;120327;-91
2021/01/26 06:44:24;;;;;;;;;;;5.50;76.20;;;;;;5029429;27;119394;-90
2021/01/26 06:47:09;;;;;;;;;;;5.50;76.20;;;;;;5047420;27;117560;-90
2021/01/26 06:49:38;;;;;;;;;;;5.50;76.10;;;;;;5047561;27;117743;-91
2021/01/26 06:52:13;;;;;;;;;;;5.50;76.10;;;;;;5046506;27;120200;-90
2021/01/26 06:54:41;;;;;;;;;;;5.50;76.20;;;;;;5029492;27;119656;-91
2021/01/26 06:57:10;;;;;;;;;;;5.50;76.10;;;;;;5047774;27;117498;-91
2021/01/26 06:59:45;;;;;;;;;;;5.50;76.00;;;;;;5047363;27;117890;-90
2021/01/26 07:02:25;;;;;;;;;;;5.50;76.10;;;;;;5046551;27;120055;-91
2021/01/26 07:04:57;;;;;;;;;;;5.50;76.00;;;;;;5046432;27;120485;-91
2021/01/26 07:07:39;;;;;;;;;;;5.50;76.00;;;;;;5047481;27;117329;-91
2021/01/26 07:10:09;;;;;;;;;;;5.50;75.90;;;;;;5030104;27;116890;-90
2021/01/26 07:12:53;;;;;;;;;;;5.50;75.90;;;;;;5029377;27;120309;-91
2021/01/26 07:15:22;;;;;;;;;;;5.50;76.00;;;;;;5046393;27;119626;-90
2021/01/26 07:17:53;;;;;;;;;;;5.50;76.20;;;;;;5046997;27;117486;-90
2021/01/26 07:20:22;;;;;;;;;;;5.50;76.10;;;;;;5030208;27;117903;-90
2021/01/26 07:22:54;;;;;;;;;;;5.50;76.10;;;;;;5046109;27;120229;-90
2021/01/26 07:25:23;;;;;;;;;;;5.50;76.10;;;;;;5029224;27;120898;-89
2021/01/26 07:28:02;;;;;;;;;;;5.50;76.20;;;;;;5047094;27;117492;-88
2021/01/26 07:30:29;;;;;;;;;;;5.50;76.20;;;;;;5047762;27;117683;-89
2021/01/26 07:33:03;;;;;;;;;;;5.40;72.50;;;;;;5031813;27;120349;-91
2021/01/26 07:35:43;;;;;;;;;;;5.20;73.20;;;;;;5032072;27;117273;-90
2021/01/26 07:38:14;;;;;;;;;;;5.20;74.30;;;;;;5033262;27;117481;-90
2021/01/26 07:41:00;;;;;;;;;;;5.30;74.60;;;;;;5033820;27;117424;-90
2021/01/26 07:43:26;;;;;;;;;;;5.30;74.70;;;;;;5067230;27;117297;-90
2021/01/26 07:46:11;;;;;;;;;;;5.30;75.10;;;;;;5049258;27;119162;-89
2021/01/26 07:48:56;;;;;;;;;;;5.30;75.00;;;;;;5031474;27;119379;-90
2021/01/26 07:51:23;;;;;;;;;;;5.30;75.20;;;;;;5068983;27;117458;-90
2021/01/26 07:53:58;;;;;;;;;;;5.30;75.20;;;;;;5032899;27;120217;-90
2021/01/26 07:56:24;;;;;;;;;;;5.30;75.20;;;;;;5049139;27;119790;-90
2021/01/26 07:58:49;;;;;;;;;;;5.30;75.40;;;;;;5049280;27;117529;-89
2021/01/26 08:01:17;;;;;;;;;;;5.30;75.40;;;;;;5032937;27;117817;-90
2021/01/26 08:03:43;;;;;;;;;;;5.40;75.30;;;;;;5032191;27;120145;-90
2021/01/26 08:06:29;;;;;;;;;;;5.30;75.40;;;;;;5032244;27;120522;-90
2021/01/26 08:08:54;;;;;;;;;;;5.40;75.30;;;;;;5031155;27;117684;-88
2021/01/26 08:11:21;;;;;;;;;;;5.40;75.60;;;;;;5033315;27;117827;-87
2021/01/26 08:13:48;;;;;;;;;;;5.40;75.60;;;;;;5032150;27;120304;-88
2021/01/26 08:16:15;;;;;;;;;;;5.40;75.50;;;;;;5032084;27;120081;-88
2021/01/26 08:18:41;;;;;;;;;;;5.30;75.50;;;;;;5032839;27;117506;-87
2021/01/26 08:21:25;;;;;;;;;;;5.40;75.50;;;;;;5032997;27;117817;-88
2021/01/26 08:23:51;;;;;;;;;;;5.40;75.60;;;;;;5048725;27;121504;-88
2021/01/26 08:26:17;;;;;;;;;;;5.40;75.50;;;;;;5031362;27;120467;-88
2021/01/26 08:28:46;;;;;;;;;;;5.40;75.70;;;;;;5032323;27;117562;-88
2021/01/26 08:31:31;;;;;;;;;;;5.30;75.50;;;;;;5033002;27;117546;-88
2021/01/26 08:34:16;;;;;;;;;;;5.40;75.50;;;;;;5031646;27;120414;-88
2021/01/26 08:36:42;;;;;;;;;;;5.40;75.40;;;;;;5048239;27;119722;-86
2021/01/26 08:39:20;;;;;;;;;;;5.40;75.50;;;;;;5032161;27;117496;-86
2021/01/26 08:41:55;;;;;;;;;;;5.40;75.60;;;;;;5068379;27;117802;-86
2021/01/26 08:44:20;;;;;;;;;;;5.40;75.60;;;;;;5031153;27;120641;-86
2021/01/26 08:46:49;;;;;;;;;;;5.40;75.60;;;;;;5048421;27;119692;-86
2021/01/26 08:49:21;;;;;;;;;;;5.40;75.60;;;;;;5032165;27;117476;-86
2021/01/26 08:51:47;;;;;;;;;;;5.40;75.60;;;;;;5049020;27;117309;-86
2021/01/26 08:54:31;;;;;;;;;;;5.40;75.70;;;;;;5031209;27;121185;-86
2021/01/26 08:56:56;;;;;;;;;;;5.40;75.60;;;;;;5048199;27;120688;-86
2021/01/26 08:59:28;;;;;;;;;;;5.40;75.60;;;;;;5031584;27;117364;-86
2021/01/26 09:01:53;;;;;;;;;;;5.40;75.60;;;;;;5049758;27;117542;-86
2021/01/26 09:04:19;;;;;;;;;;;5.40;75.70;;;;;;5048300;27;117910;-86
2021/01/26 09:06:45;;;;;;;;;;;5.40;75.60;;;;;;5048031;27;119792;-86
2021/01/26 09:09:23;;;;;;;;;;;5.40;75.70;;;;;;5031977;27;117577;-86
2021/01/26 09:11:52;;;;;;;;;;;5.40;75.70;;;;;;5049232;27;117744;-86
2021/01/26 09:14:27;;;;;;;;;;;5.40;75.70;;;;;;5048150;27;118449;-86
2021/01/26 09:16:59;;;;;;;;;;;5.40;75.70;;;;;;5030424;27;119482;-86
2021/01/26 09:19:26;;;;;;;;;;;5.40;75.60;;;;;;5031490;27;117621;-86
2021/01/26 09:21:52;;;;;;;;;;;5.40;75.60;;;;;;5032273;27;117794;-86
2021/01/26 09:24:19;;;;;;;;;;;5.40;75.40;;;;;;5030774;27;120463;-86
2021/01/26 09:26:45;;;;;;;;;;;5.40;75.30;;;;;;5030934;27;119614;-86
2021/01/26 09:29:20;;;;;;;;;;;5.40;76.00;;;;;;5031716;27;117586;-86
2021/01/26 09:31:46;;;;;;;;;;;5.40;75.30;;;;;;5032084;27;117833;-86
2021/01/26 09:34:11;;;;;;;;;;;5.30;75.20;;;;;;5030843;27;120306;-86
2021/01/26 09:36:37;;;;;;;;;;;5.30;75.40;;;;;;5030617;27;120657;-86
2021/01/26 09:39:05;;;;;;;;;;;5.30;75.20;;;;;;5031279;27;117299;-86
2021/01/26 09:41:31;;;;;;;;;;;5.30;75.30;;;;;;5031349;27;117401;-86
2021/01/26 09:43:57;;;;;;;;;;;5.30;75.20;;;;;;5030528;27;122451;-86
2021/01/26 09:46:27;;;;;;;;;;;5.30;75.30;;;;;;5040167;22;119205;-90
2021/01/26 09:48:54;;;;;;;;;;;5.30;75.40;;;;;;4987975;28;117466;-90
2021/01/26 09:51:21;;;;;;;;;;;5.40;75.50;;;;;;5005209;28;117752;-90
2021/01/26 09:53:47;;;;;;;;;;;5.40;75.40;;;;;;4987173;28;120368;-90
2021/01/26 09:56:15;;;;;;;;;;;5.40;75.30;;;;;;4981970;28;120802;-90
2021/01/26 09:58:41;;;;;;;;;;;5.40;75.20;;;;;;4968164;28;117666;-90
2021/01/26 10:01:06;;;;;;;;;;;5.30;75.10;;;;;;4968325;28;117868;-89
2021/01/26 10:03:32;;;;;;;;;;;5.30;75.30;;;;;;4966946;28;120222;-90
2021/01/26 10:05:59;;;;;;;;;;;5.40;75.50;;;;;;4966255;28;120487;-90
2021/01/26 10:08:26;;;;;;;;;;;5.30;75.30;;;;;;4968022;28;117527;-90
2021/01/26 10:10:51;;;;;;;;;;;5.30;75.30;;;;;;4968129;28;117833;-90
2021/01/26 10:13:20;;;;;;;;;;;5.30;75.30;;;;;;4966785;28;121251;-90
2021/01/26 10:15:45;;;;;;;;;;;5.40;75.40;;;;;;4983130;28;120479;-89
2021/01/26 10:18:12;;;;;;;;;;;5.40;75.50;;;;;;4967627;28;117208;-90
2021/01/26 10:20:44;;;;;;;;;;;5.40;75.30;;;;;;4968356;28;117500;-90
2021/01/26 10:23:09;;;;;;;;;;;5.40;75.40;;;;;;4983398;28;120377;-90
2021/01/26 10:25:35;;;;;;;;;;;5.40;75.40;;;;;;4983295;28;120876;-90
2021/01/26 10:28:21;;;;;;;;;;;5.40;75.30;;;;;;4967367;28;117963;-90
2021/01/26 10:30:47;;;;;;;;;;;5.40;75.30;;;;;;4967326;28;117628;-90
2021/01/26 10:33:32;;;;;;;;;;;5.40;75.30;;;;;;4966592;28;121160;-90
2021/01/26 10:36:17;;;;;;;;;;;5.40;75.30;;;;;;4975373;28;120784;-90
2021/01/26 10:38:42;;;;;;;;;;;5.40;75.30;;;;;;5000529;28;117650;-90
2021/01/26 10:41:10;;;;;;;;;;;5.40;75.10;;;;;;4967876;28;117846;-90
2021/01/26 10:43:36;;;;;;;;;;;5.40;75.30;;;;;;4966486;28;121545;-90
2021/01/26 10:46:01;;;;;;;;;;;5.40;75.20;;;;;;4966239;28;119840;-89
2021/01/26 10:48:33;;;;;;;;;;;5.30;75.20;;;;;;4951012;28;117414;-90
2021/01/26 10:51:13;;;;;;;;;;;5.30;75.20;;;;;;4985714;28;117807;-90
2021/01/26 10:53:39;;;;;;;;;;;5.40;75.30;;;;;;4982915;28;122230;-91
2021/01/26 10:56:05;;;;;;;;;;;5.40;75.10;;;;;;4982066;28;120225;-90
2021/01/26 10:58:30;;;;;;;;;;;5.30;75.00;;;;;;4950829;28;117247;-90
2021/01/26 11:00:56;;;;;;;;;;;5.30;75.00;;;;;;4967783;28;117844;-90
2021/01/26 11:03:21;;;;;;;;;;;5.30;75.10;;;;;;4949650;28;120644;-90
2021/01/26 11:05:47;;;;;;;;;;;5.30;75.10;;;;;;4949757;28;119356;-89
2021/01/26 11:08:12;;;;;;;;;;;5.40;75.30;;;;;;4953823;28;117616;-90
2021/01/26 11:10:38;;;;;;;;;;;5.30;75.20;;;;;;4954472;28;117866;-90
2021/01/26 11:13:03;;;;;;;;;;;5.30;75.20;;;;;;4953225;28;120751;-90
2021/01/26 11:15:29;;;;;;;;;;;5.30;75.20;;;;;;4953151;28;119283;-90
2021/01/26 11:17:54;;;;;;;;;;;5.40;75.00;;;;;;4953569;28;117436;-90
2021/01/26 11:20:20;;;;;;;;;;;5.40;75.10;;;;;;4953760;28;118027;-90
2021/01/26 11:22:45;;;;;;;;;;;5.40;75.00;;;;;;4953068;28;122267;-89
2021/01/26 11:25:11;;;;;;;;;;;5.30;74.70;;;;;;4953005;28;120767;-90
2021/01/26 11:27:36;;;;;;;;;;;5.30;74.80;;;;;;4970056;28;117539;-90
2021/01/26 11:30:06;;;;;;;;;;;5.30;74.90;;;;;;4970613;28;117769;-90
2021/01/26 11:32:31;;;;;;;;;;;5.30;74.80;;;;;;4952815;28;119811;-90
2021/01/26 11:34:57;;;;;;;;;;;5.40;75.20;;;;;;4952847;28;120734;-90
2021/01/26 11:37:22;;;;;;;;;;;5.30;75.10;;;;;;4953755;28;117301;-90
2021/01/26 11:39:48;;;;;;;;;;;5.30;74.90;;;;;;4970642;28;117825;-90
2021/01/26 11:42:13;;;;;;;;;;;5.30;74.80;;;;;;4952952;28;120537;-90
2021/01/26 11:44:39;;;;;;;;;;;5.30;74.70;;;;;;4952136;28;119588;-90
2021/01/26 11:47:04;;;;;;;;;;;5.30;74.60;;;;;;4960229;28;117749;-90
2021/01/26 11:49:30;;;;;;;;;;;5.30;74.70;;;;;;4969997;28;117893;-90
2021/01/26 11:51:55;;;;;;;;;;;5.30;74.80;;;;;;4968983;28;120088;-90
2021/01/26 11:54:21;;;;;;;;;;;5.30;74.70;;;;;;4968847;28;119808;-90
2021/01/26 11:56:46;;;;;;;;;;;5.40;74.70;;;;;;4986516;28;117493;-90
2021/01/26 11:59:12;;;;;;;;;;;5.30;74.50;;;;;;4970391;28;117432;-90
2021/01/26 12:01:37;;;;;;;;;;;5.30;74.40;;;;;;4969097;28;120547;-90
2021/01/26 12:04:03;;;;;;;;;;;5.30;74.60;;;;;;4968761;28;119573;-90
2021/01/26 12:06:29;;;;;;;;;;;5.30;74.60;;;;;;4969450;28;117564;-90
2021/01/26 12:08:54;;;;;;;;;;;5.30;74.70;;;;;;4969326;28;117848;-90
2021/01/26 12:11:19;;;;;;;;;;;5.30;74.70;;;;;;4968519;28;120545;-90
2021/01/26 12:13:45;;;;;;;;;;;5.30;74.60;;;;;;4968409;28;120599;-90
2021/01/26 12:16:10;;;;;;;;;;;5.30;74.70;;;;;;4969268;28;117572;-90
2021/01/26 12:18:36;;;;;;;;;;;5.30;74.70;;;;;;4968866;28;117947;-90
2021/01/26 12:21:02;;;;;;;;;;;5.30;74.80;;;;;;4985531;28;118583;-90
2021/01/26 12:23:27;;;;;;;;;;;5.30;74.80;;;;;;4968254;28;119390;-90
2021/01/26 12:25:57;;;;;;;;;;;5.30;74.90;;;;;;4969379;28;117652;-90
2021/01/26 12:28:23;;;;;;;;;;;5.30;74.70;;;;;;4969968;28;117741;-90
2021/01/26 12:30:48;;;;;;;;;;;5.30;74.80;;;;;;4985260;28;117568;-90
2021/01/26 12:33:13;;;;;;;;;;;5.30;74.90;;;;;;4967784;28;119837;-90
2021/01/26 12:35:39;;;;;;;;;;;5.30;74.80;;;;;;4969064;28;117425;-90
2021/01/26 12:38:05;;;;;;;;;;;5.30;74.60;;;;;;4969139;28;117874;-90
2021/01/26 12:40:30;;;;;;;;;;;5.30;74.70;;;;;;4968243;28;121366;-90
2021/01/26 12:42:56;;;;;;;;;;;5.30;74.80;;;;;;4985107;28;117273;-90
2021/01/26 12:45:22;;;;;;;;;;;5.30;74.80;;;;;;4969756;28;117589;-90
2021/01/26 12:47:48;;;;;;;;;;;5.30;74.80;;;;;;4968715;28;117842;-90
2021/01/26 12:50:15;;;;;;;;;;;5.30;74.90;;;;;;4968192;28;120359;-89
2021/01/26 12:52:41;;;;;;;;;;;5.30;74.80;;;;;;4967890;28;119470;-89
2021/01/26 12:55:06;;;;;;;;;;;5.30;74.60;;;;;;4968723;28;117687;-89
2021/01/26 12:57:32;;;;;;;;;;;5.30;74.70;;;;;;4968336;28;117606;-89
2021/01/26 12:59:58;;;;;;;;;;;5.30;74.60;;;;;;4984701;28;117634;-89
2021/01/26 13:02:23;;;;;;;;;;;5.30;74.80;;;;;;4967897;28;119124;-89
2021/01/26 13:04:49;;;;;;;;;;;5.40;74.80;;;;;;4968843;28;117514;-89
2021/01/26 13:07:14;;;;;;;;;;;5.30;74.70;;;;;;4968590;28;117805;-89
2021/01/26 13:09:40;;;;;;;;;;;5.30;74.60;;;;;;4967672;28;121449;-89
2021/01/26 13:12:06;;;;;;;;;;;5.30;75.00;;;;;;4967642;28;119452;-89
2021/01/26 13:14:31;;;;;;;;;;;5.30;74.60;;;;;;4985270;28;117567;-89
2021/01/26 13:16:57;;;;;;;;;;;5.30;74.70;;;;;;4968667;28;117830;-89
2021/01/26 13:19:22;;;;;;;;;;;5.30;74.70;;;;;;4984561;28;118518;-89
2021/01/26 13:21:50;;;;;;;;;;;5.30;74.70;;;;;;4966958;28;120329;-88
2021/01/26 13:24:16;;;;;;;;;;;5.30;74.70;;;;;;4968505;28;117725;-88
2021/01/26 13:26:42;;;;;;;;;;;5.30;74.80;;;;;;4968591;28;118204;-89
2021/01/26 13:29:07;;;;;;;;;;;5.30;74.70;;;;;;4966985;28;121105;-89
2021/01/26 13:31:33;;;;;;;;;;;5.30;74.80;;;;;;4967522;28;119394;-87
2021/01/26 13:33:58;;;;;;;;;;;5.30;74.90;;;;;;4968571;28;117462;-87
2021/01/26 13:36:24;;;;;;;;;;;5.30;74.70;;;;;;4968724;28;117347;-87
2021/01/26 13:38:50;;;;;;;;;;;5.30;74.70;;;;;;4986505;28;117475;-87
2021/01/26 13:41:15;;;;;;;;;;;5.30;74.70;;;;;;4972797;28;120138;-87
2021/01/26 13:43:41;;;;;;;;;;;5.30;74.70;;;;;;4971205;28;117434;-90
2021/01/26 13:46:06;;;;;;;;;;;5.30;74.60;;;;;;4967241;28;117763;-89
2021/01/26 13:48:32;;;;;;;;;;;5.30;75.20;;;;;;4950716;28;121429;-89
2021/01/26 13:50:57;;;;;;;;;;;5.30;74.70;;;;;;4950724;28;119307;-90
2021/01/26 13:53:23;;;;;;;;;;;5.30;75.10;;;;;;4951551;28;117485;-89
2021/01/26 13:55:48;;;;;;;;;;;5.30;74.80;;;;;;4951810;28;117810;-89
2021/01/26 13:58:14;;;;;;;;;;;5.30;74.80;;;;;;4950965;28;122104;-89
2021/01/26 14:00:40;;;;;;;;;;;5.30;74.90;;;;;;4950661;28;120418;-89
2021/01/26 14:03:06;;;;;;;;;;;5.30;74.90;;;;;;4951775;28;117497;-89
2021/01/26 14:05:32;;;;;;;;;;;5.30;74.70;;;;;;4951855;28;117953;-89
2021/01/26 14:08:01;;;;;;;;;;;5.30;74.80;;;;;;4950249;28;121290;-89
2021/01/26 14:10:28;;;;;;;;;;;5.30;74.80;;;;;;4950018;28;120787;-88
2021/01/26 14:12:53;;;;;;;;;;;5.30;74.70;;;;;;4951481;28;117353;-89
2021/01/26 14:15:19;;;;;;;;;;;5.40;74.80;;;;;;4951649;28;117837;-89
2021/01/26 14:17:44;;;;;;;;;;;5.30;74.70;;;;;;4950332;28;121110;-89
2021/01/26 14:20:10;;;;;;;;;;;5.30;74.70;;;;;;4950394;28;120564;-89
2021/01/26 14:22:36;;;;;;;;;;;5.30;74.60;;;;;;4951358;28;117559;-89
2021/01/26 14:25:02;;;;;;;;;;;5.30;74.60;;;;;;4951560;28;117847;-89